Time;durP1;ratioP1;P1;durP2;ratioP2;P2;SDS_P1;SDS_P2;PMS_P1;PMS_P2;Temp;Humidity;BMP_temperature;BMP_pressure;BME280_temperature;BME280_humidity;BME280_pressure;Samples;Min_cycle;Max_cycle;Signal;HPM_P1;HPM_P2
2023/04/30 00:00:31;;;;;;;37.58;17.48;;;;;;;7.94;100.00;93176.53;2087825;28;20398;-85
2023/04/30 00:01:32;;;;;;;35.95;17.23;;;;;;;7.92;100.00;93179.59;2096268;28;20037;-85
2023/04/30 00:02:33;;;;;;;35.17;16.63;;;;;;;7.94;100.00;93179.97;2107871;28;20111;-84
2023/04/30 00:03:34;;;;;;;43.25;17.85;;;;;;;7.96;100.00;93185.66;2094279;28;20485;-84
2023/04/30 00:04:35;;;;;;;35.50;16.52;;;;;;;8.00;100.00;93182.94;2092662;28;20032;-84
2023/04/30 00:05:37;;;;;;;36.28;17.45;;;;;;;8.09;100.00;93183.22;2096031;28;20027;-84
2023/04/30 00:06:38;;;;;;;37.50;17.98;;;;;;;7.98;100.00;93178.00;2076810;28;20080;-83
2023/04/30 00:07:41;;;;;;;35.25;17.40;;;;;;;8.19;100.00;93182.34;2075344;28;20458;-84
2023/04/30 00:08:42;;;;;;;34.78;17.48;;;;;;;8.17;100.00;93183.91;2088376;28;20086;-85
2023/04/30 00:09:43;;;;;;;33.95;17.17;;;;;;;8.15;100.00;93186.94;2087591;28;20067;-84
2023/04/30 00:10:44;;;;;;;34.97;17.52;;;;;;;8.10;100.00;93182.06;2085647;28;20067;-83
2023/04/30 00:11:45;;;;;;;37.67;18.08;;;;;;;8.11;100.00;93180.16;2092389;28;20024;-84
2023/04/30 00:12:46;;;;;;;40.53;18.10;;;;;;;8.06;100.00;93176.78;2088692;28;20033;-84
2023/04/30 00:13:47;;;;;;;33.88;17.40;;;;;;;8.05;100.00;93174.53;2084137;28;20033;-84
2023/04/30 00:14:48;;;;;;;38.63;17.65;;;;;;;8.01;100.00;93179.88;2098227;28;20020;-85
2023/04/30 00:15:50;;;;;;;35.40;18.77;;;;;;;8.02;100.00;93173.41;2100060;28;20123;-85
2023/04/30 00:16:53;;;;;;;36.08;18.05;;;;;;;8.10;100.00;93168.00;2100392;28;20025;-85
2023/04/30 00:17:54;;;;;;;37.50;18.02;;;;;;;8.14;100.00;93172.13;2099255;28;20485;-84
2023/04/30 00:18:55;;;;;;;35.50;17.75;;;;;;;8.22;100.00;93172.81;2092467;28;20035;-84
2023/04/30 00:19:56;;;;;;;40.92;18.85;;;;;;;8.24;100.00;93173.91;2081435;28;20044;-85
2023/04/30 00:20:57;;;;;;;37.65;17.73;;;;;;;8.39;100.00;93174.53;2089624;28;20033;-84
2023/04/30 00:22:00;;;;;;;41.83;18.33;;;;;;;8.34;100.00;93177.63;2090158;28;20063;-83
2023/04/30 00:23:01;;;;;;;39.92;18.75;;;;;;;8.21;100.00;93173.94;2081320;28;20029;-85
2023/04/30 00:24:02;;;;;;;39.05;18.65;;;;;;;8.48;100.00;93174.06;2079863;28;20068;-85
2023/04/30 00:25:04;;;;;;;38.72;18.45;;;;;;;8.38;100.00;93173.00;2087839;28;20522;-84
2023/04/30 00:26:04;;;;;;;42.40;18.95;;;;;;;8.43;100.00;93172.59;2088184;28;20025;-85
2023/04/30 00:27:05;;;;;;;40.65;18.75;;;;;;;8.31;100.00;93173.09;2078601;28;20048;-84
2023/04/30 00:28:06;;;;;;;44.42;19.52;;;;;;;8.14;100.00;93174.06;2088339;28;20021;-83
2023/04/30 00:29:07;;;;;;;42.10;19.48;;;;;;;8.19;100.00;93173.59;2096403;28;20032;-83
2023/04/30 00:30:09;;;;;;;42.58;19.90;;;;;;;8.18;100.00;93180.09;2088104;28;20024;-83
2023/04/30 00:31:09;;;;;;;41.92;20.27;;;;;;;8.14;100.00;93171.38;2088171;28;20086;-83
2023/04/30 00:32:10;;;;;;;45.10;20.33;;;;;;;8.07;100.00;93174.88;2096278;28;20058;-84
2023/04/30 00:33:11;;;;;;;45.15;20.08;;;;;;;8.08;100.00;93173.75;2096305;28;20560;-84
2023/04/30 00:34:12;;;;;;;43.90;19.90;;;;;;;8.04;100.00;93175.69;2089773;28;20098;-85
2023/04/30 00:35:14;;;;;;;40.58;19.50;;;;;;;8.06;100.00;93176.03;2088781;28;20087;-84
2023/04/30 00:36:15;;;;;;;44.75;20.95;;;;;;;8.03;100.00;93164.28;2083868;28;20025;-85
2023/04/30 00:37:16;;;;;;;43.60;20.15;;;;;;;8.05;100.00;93175.28;2079741;28;20026;-83
2023/04/30 00:38:17;;;;;;;43.08;20.67;;;;;;;8.01;100.00;93169.25;2088226;28;20048;-83
2023/04/30 00:39:18;;;;;;;47.05;20.52;;;;;;;8.02;100.00;93168.09;2089623;28;20059;-84
2023/04/30 00:40:19;;;;;;;44.72;20.33;;;;;;;8.00;100.00;93166.97;2091810;28;20039;-84
2023/04/30 00:41:22;;;;;;;50.20;22.23;;;;;;;7.97;100.00;93165.84;2095954;28;20024;-84
2023/04/30 00:42:23;;;;;;;43.70;20.27;;;;;;;8.00;100.00;93167.75;2093461;28;20036;-83
2023/04/30 00:43:24;;;;;;;44.15;20.10;;;;;;;8.05;100.00;93167.28;2089041;28;20475;-85
2023/04/30 00:44:25;;;;;;;44.30;21.50;;;;;;;8.06;100.00;93168.03;2086930;28;20035;-84
2023/04/30 00:45:26;;;;;;;43.95;20.63;;;;;;;8.06;100.00;93170.72;2087180;28;20036;-86
2023/04/30 00:46:28;;;;;;;48.65;21.45;;;;;;;8.03;100.00;93172.28;2087511;28;20016;-84
2023/04/30 00:47:30;;;;;;;47.03;21.73;;;;;;;8.02;100.00;93170.75;2087325;28;20029;-85
2023/04/30 00:48:32;;;;;;;44.33;20.38;;;;;;;8.03;100.00;93169.63;2092615;28;20032;-85
2023/04/30 00:49:33;;;;;;;41.83;20.52;;;;;;;8.06;100.00;93170.72;2078348;28;20028;-83
2023/04/30 00:50:35;;;;;;;47.15;20.58;;;;;;;8.04;100.00;93170.38;2079645;28;20036;-85
2023/04/30 00:51:40;;;;;;;41.58;20.85;;;;;;;8.01;100.00;93174.56;2088172;28;20470;-85
2023/04/30 00:52:42;;;;;;;48.72;21.60;;;;;;;8.12;100.00;93160.38;2085023;28;20036;-85
2023/04/30 00:53:43;;;;;;;42.38;20.25;;;;;;;8.18;100.00;93164.13;2083206;28;20017;-85
2023/04/30 00:54:44;;;;;;;46.00;21.63;;;;;;;8.24;100.00;93162.50;2089804;28;20112;-85
2023/04/30 00:55:47;;;;;;;46.47;21.92;;;;;;;8.21;100.00;93157.97;2100617;28;20121;-85
2023/04/30 00:56:48;;;;;;;53.55;21.83;;;;;;;8.19;100.00;93158.38;2096973;28;20024;-86
2023/04/30 00:57:50;;;;;;;43.90;21.52;;;;;;;8.23;100.00;93158.34;2081659;28;20108;-84
2023/04/30 00:58:55;;;;;;;46.90;20.83;;;;;;;8.29;100.00;93154.06;2089292;28;20020;-84
2023/04/30 00:59:56;;;;;;;41.88;19.75;;;;;;;8.27;100.00;93156.41;2081105;28;20064;-84
2023/04/30 01:00:57;;;;;;;47.33;21.95;;;;;;;8.15;100.00;93155.00;2079378;28;20470;-84
2023/04/30 01:01:59;;;;;;;50.60;23.30;;;;;;;8.16;100.00;93150.44;2090168;28;20029;-84
2023/04/30 01:03:00;;;;;;;48.90;20.67;;;;;;;8.16;100.00;93155.75;2097154;28;20408;-84
2023/04/30 01:04:02;;;;;;;48.65;21.95;;;;;;;8.22;100.00;93165.59;2087710;28;20033;-84
2023/04/30 01:05:03;;;;;;;50.25;21.90;;;;;;;8.21;100.00;93155.31;2079051;28;20462;-85
2023/04/30 01:06:04;;;;;;;49.05;22.75;;;;;;;8.15;100.00;93152.34;2079673;28;20033;-84
2023/04/30 01:07:06;;;;;;;45.58;21.77;;;;;;;8.06;100.00;93152.06;2079325;28;20187;-84
2023/04/30 01:08:09;;;;;;;52.20;24.13;;;;;;;8.07;100.00;93153.56;2075820;28;20057;-85
2023/04/30 01:09:10;;;;;;;50.88;22.33;;;;;;;8.08;100.00;93152.44;2084044;28;20029;-84
2023/04/30 01:10:13;;;;;;;47.00;22.50;;;;;;;8.03;100.00;93155.53;2079296;28;20017;-84
2023/04/30 01:11:35;;;;;;;47.10;21.73;;;;;;;8.04;100.00;93152.47;2088174;28;20021;-83
2023/04/30 01:13:00;;;;;;;52.55;22.25;;;;;;;8.12;100.00;93163.03;2092845;28;20101;-82
2023/04/30 01:14:08;;;;;;;49.80;21.23;;;;;;;8.17;100.00;93150.06;2087821;28;20571;-83
2023/04/30 01:15:52;;;;;;;51.53;22.92;;;;;;;8.11;100.00;93150.88;2081142;28;20494;-84
2023/04/30 01:17:07;;;;;;;47.38;21.67;;;;;;;8.28;100.00;93141.91;2092965;28;20043;-84
2023/04/30 01:18:21;;;;;;;46.53;21.75;;;;;;;8.21;100.00;93144.66;2089425;28;20115;-85
2023/04/30 01:19:43;;;;;;;44.05;22.05;;;;;;;7.95;100.00;93148.78;2083334;28;20025;-85
2023/04/30 01:21:02;;;;;;;48.35;21.48;;;;;;;8.13;100.00;93144.00;2097551;28;20043;-84
2023/04/30 01:22:08;;;;;;;50.60;23.13;;;;;;;8.12;100.00;93141.72;2101915;28;20082;-85
2023/04/30 01:23:30;;;;;;;49.20;22.05;;;;;;;7.99;100.00;93138.84;2101308;27;20031;-85
2023/04/30 01:25:02;;;;;;;45.38;21.75;;;;;;;7.95;100.00;93133.56;2099907;28;20044;-85
2023/04/30 01:26:37;;;;;;;44.30;20.35;;;;;;;7.92;100.00;93136.28;2100565;28;20103;-86
2023/04/30 01:27:56;;;;;;;45.95;20.88;;;;;;;7.93;100.00;93140.44;2096187;28;20027;-85
2023/04/30 01:28:59;;;;;;;44.70;20.40;;;;;;;7.90;100.00;93122.59;2087173;28;20021;-84
2023/04/30 01:30:02;;;;;;;47.00;21.58;;;;;;;7.87;100.00;93129.47;2095246;28;20058;-83
2023/04/30 01:31:12;;;;;;;41.92;20.35;;;;;;;7.86;100.00;93132.53;2100493;28;20024;-86
2023/04/30 01:32:13;;;;;;;49.38;21.38;;;;;;;7.87;100.00;93126.81;2092745;28;20051;-85
2023/04/30 01:33:16;;;;;;;46.95;22.50;;;;;;;7.81;100.00;93133.72;2084889;28;20028;-85
2023/04/30 01:34:17;;;;;;;46.25;21.98;;;;;;;7.79;100.00;93128.06;2090785;28;20234;-84
2023/04/30 01:35:18;;;;;;;46.35;21.92;;;;;;;7.80;100.00;93124.22;2092090;28;20426;-85
2023/04/30 01:36:43;;;;;;;44.55;21.23;;;;;;;7.76;100.00;93121.59;2095075;28;20476;-82
2023/04/30 01:38:05;;;;;;;49.30;22.65;;;;;;;7.84;100.00;93124.94;2098057;28;20404;-84
2023/04/30 01:39:30;;;;;;;43.33;20.50;;;;;;;7.90;100.00;93112.72;2102164;28;20103;-82
2023/04/30 01:40:47;;;;;;;42.55;20.48;;;;;;;7.90;100.00;93119.94;2108067;28;20026;-85
2023/04/30 01:41:53;;;;;;;45.83;21.33;;;;;;;7.88;100.00;93120.34;2094772;28;20020;-85
2023/04/30 01:43:06;;;;;;;41.95;21.23;;;;;;;8.02;100.00;93104.19;2084980;28;20124;-84
2023/04/30 01:44:13;;;;;;;41.03;19.63;;;;;;;7.99;100.00;93112.22;2096576;28;20021;-85
2023/04/30 01:45:21;;;;;;;44.80;22.00;;;;;;;7.86;100.00;93114.69;2096980;28;20450;-84
2023/04/30 01:46:28;;;;;;;40.05;20.65;;;;;;;7.85;100.00;93117.72;2092063;28;20032;-84
2023/04/30 01:47:47;;;;;;;42.90;21.13;;;;;;;7.86;100.00;93120.00;2091525;28;20040;-84
2023/04/30 01:49:01;;;;;;;44.10;21.33;;;;;;;8.11;100.00;93119.69;2102171;28;20074;-84
2023/04/30 01:50:07;;;;;;;44.00;20.25;;;;;;;8.05;100.00;93122.03;2100356;28;20052;-84
2023/04/30 01:51:20;;;;;;;40.10;21.50;;;;;;;7.94;100.00;93120.66;2088496;28;20029;-84
2023/04/30 01:52:37;;;;;;;39.35;19.73;;;;;;;8.03;100.00;93121.69;2090237;28;20028;-85
2023/04/30 01:53:41;;;;;;;36.60;19.10;;;;;;;7.92;100.00;93118.41;2091768;28;20413;-84
2023/04/30 01:54:55;;;;;;;38.00;20.42;;;;;;;7.99;100.00;93121.00;2084118;28;20029;-85
2023/04/30 01:56:03;;;;;;;42.50;19.23;;;;;;;7.97;100.00;93119.88;2086831;28;20064;-84
2023/04/30 01:57:09;;;;;;;38.88;20.52;;;;;;;7.98;100.00;93119.44;2101032;28;20029;-83
2023/04/30 01:58:12;;;;;;;36.58;19.77;;;;;;;7.96;100.00;93116.44;2102915;28;20032;-83
2023/04/30 01:59:14;;;;;;;37.15;20.42;;;;;;;7.90;100.00;93112.72;2092490;28;20035;-84
2023/04/30 02:00:16;;;;;;;41.40;22.33;;;;;;;7.86;100.00;93116.56;2091100;28;20024;-84
2023/04/30 02:01:30;;;;;;;42.15;21.83;;;;;;;7.85;100.00;93113.16;2099567;28;20069;-84
2023/04/30 02:02:31;;;;;;;37.15;20.30;;;;;;;7.73;100.00;93116.34;2100174;28;20060;-85
2023/04/30 02:03:32;;;;;;;43.60;22.05;;;;;;;7.79;100.00;93112.09;2100030;28;20416;-85
2023/04/30 02:04:33;;;;;;;42.45;20.83;;;;;;;7.79;100.00;93112.09;2091418;28;20074;-84
2023/04/30 02:05:35;;;;;;;41.40;21.98;;;;;;;7.76;100.00;93116.28;2083199;28;20115;-84
2023/04/30 02:06:36;;;;;;;37.08;19.08;;;;;;;7.75;100.00;93114.03;2094363;28;20058;-85
2023/04/30 02:07:41;;;;;;;40.50;20.73;;;;;;;7.79;100.00;93112.09;2086655;28;20478;-84
2023/04/30 02:08:42;;;;;;;37.88;20.33;;;;;;;7.83;100.00;93115.47;2091905;28;20393;-84
2023/04/30 02:09:44;;;;;;;38.80;20.83;;;;;;;7.84;100.00;93108.97;2084580;28;20556;-84
2023/04/30 02:10:46;;;;;;;37.55;20.88;;;;;;;7.78;100.00;93111.34;2092336;28;20397;-84
2023/04/30 02:11:47;;;;;;;37.50;20.67;;;;;;;7.89;100.00;93099.81;2087292;28;20359;-85
2023/04/30 02:12:48;;;;;;;38.05;20.00;;;;;;;7.84;100.00;93106.31;2102720;28;20073;-85
2023/04/30 02:13:49;;;;;;;41.97;20.88;;;;;;;7.83;100.00;93108.22;2093789;28;20036;-84
2023/04/30 02:14:50;;;;;;;37.97;21.17;;;;;;;7.94;100.00;93108.09;2085706;28;20195;-85
2023/04/30 02:15:51;;;;;;;37.92;19.90;;;;;;;7.86;100.00;93116.56;2084566;28;20048;-84
2023/04/30 02:16:52;;;;;;;39.63;20.10;;;;;;;8.05;100.00;93122.03;2091550;28;20498;-86
2023/04/30 02:17:53;;;;;;;37.00;19.60;;;;;;;7.99;100.00;93112.22;2100468;28;20512;-85
2023/04/30 02:20:43;;;;;;;;;;;;;;;7.80;100.00;93124.22;2136759;27;20606;-75
2023/04/30 02:21:47;;;;;;;30.15;16.80;;;;;;;7.88;100.00;93123.00;2118050;28;19915;-75
2023/04/30 02:23:13;;;;;;;30.25;17.67;;;;;;;7.80;100.00;93124.22;2098029;28;20028;-76
2023/04/30 02:24:38;;;;;;;31.00;17.95;;;;;;;7.70;100.00;93117.13;2101489;28;20122;-78
2023/04/30 02:25:55;;;;;;;30.52;18.05;;;;;;;7.68;100.00;93116.75;2103353;28;20131;-77
2023/04/30 02:27:03;;;;;;;32.05;18.95;;;;;;;7.55;100.00;93124.50;2094130;28;20516;-78
2023/04/30 02:28:10;;;;;;;29.38;17.95;;;;;;;7.58;100.00;93124.47;2094891;28;20079;-75
2023/04/30 02:29:12;;;;;;;33.55;19.50;;;;;;;7.55;100.00;93119.94;2097644;28;20040;-75
2023/04/30 02:30:16;;;;;;;31.88;18.17;;;;;;;7.56;100.00;93121.44;2111263;28;20487;-76
2023/04/30 02:31:20;;;;;;;31.63;18.52;;;;;;;7.63;100.00;93122.53;2100282;28;20036;-78
2023/04/30 02:32:22;;;;;;;32.78;19.00;;;;;;;7.63;100.00;93125.19;2100080;28;20499;-76
2023/04/30 02:33:31;;;;;;;33.47;18.73;;;;;;;7.67;100.00;93125.91;2099989;28;20040;-77
2023/04/30 02:34:46;;;;;;;29.05;17.90;;;;;;;7.73;100.00;93125.06;2101906;28;20044;-76
2023/04/30 02:35:50;;;;;;;27.38;17.05;;;;;;;7.78;100.00;93127.31;2099079;28;20028;-76
2023/04/30 02:38:07;;;;;;;;;;;;;;;;;;;;;
2023/04/30 02:40:14;;;;;;;28.50;16.75;;;;;;;7.87;100.00;93129.47;2083548;28;20056;-76
2023/04/30 02:41:52;;;;;;;26.48;16.20;;;;;;;7.79;100.00;93122.72;2100432;28;20044;-76
2023/04/30 02:45:40;;;;;;;27.15;15.65;;;;;;;7.70;100.00;93125.88;2124300;27;20106;-76
2023/04/30 02:47:44;;;;;;;;;;;;;;;;;;;;;
2023/04/30 02:50:46;;;;;;;23.15;15.30;;;;;;;7.76;100.00;93123.50;2083155;28;20048;-79
2023/04/30 02:52:09;;;;;;;23.85;14.85;;;;;;;7.87;100.00;93128.72;2098703;28;20063;-76
2023/04/30 02:53:45;;;;;;;26.08;15.85;;;;;;;7.84;100.00;93124.94;2113559;28;20043;-76
2023/04/30 02:54:55;;;;;;;24.73;15.85;;;;;;;7.86;100.00;93127.19;2123217;27;20038;-76
2023/04/30 02:56:10;;;;;;;23.05;15.93;;;;;;;7.89;100.00;93134.41;2117662;28;20048;-77
2023/04/30 02:57:15;;;;;;;22.20;15.07;;;;;;;7.83;100.00;93126.09;2104827;28;20028;-75
2023/04/30 02:58:36;;;;;;;24.77;15.82;;;;;;;7.81;100.00;93131.84;2108504;28;20120;-75
2023/04/30 02:59:46;;;;;;;26.83;15.82;;;;;;;7.84;100.00;93127.59;2109779;28;20043;-75
2023/04/30 03:01:21;;;;;;;23.73;15.70;;;;;;;7.81;100.00;93121.19;2106551;28;20027;-77
2023/04/30 03:02:48;;;;;;;22.35;15.13;;;;;;;7.81;100.00;93126.50;2110497;28;20035;-76
2023/04/30 03:03:57;;;;;;;21.75;14.80;;;;;;;7.85;100.00;93121.13;2105920;28;20034;-78
2023/04/30 03:04:58;;;;;;;23.35;14.93;;;;;;;7.82;100.00;93117.38;2107385;28;20509;-75
2023/04/30 03:05:59;;;;;;;23.52;16.70;;;;;;;7.82;100.00;93116.63;2101138;28;20042;-79
2023/04/30 03:07:07;;;;;;;21.35;15.20;;;;;;;7.86;100.00;93119.22;2094557;28;20037;-77
2023/04/30 03:08:11;;;;;;;22.48;15.50;;;;;;;7.81;100.00;93112.44;2111902;27;20039;-76
2023/04/30 03:09:14;;;;;;;24.35;15.55;;;;;;;7.72;100.00;93115.56;2116971;28;20473;-77
2023/04/30 03:10:15;;;;;;;21.20;15.05;;;;;;;7.75;100.00;93117.44;2111141;28;20059;-76
2023/04/30 03:11:49;;;;;;;23.10;16.20;;;;;;;7.80;100.00;93113.59;2108405;28;20370;-75
2023/04/30 03:13:26;;;;;;;20.45;14.40;;;;;;;7.76;100.00;93116.28;2071432;28;20447;-75
2023/04/30 03:15:08;;;;;;;24.60;15.38;;;;;;;7.75;100.00;93108.72;2075184;28;20124;-74
2023/04/30 03:16:22;;;;;;;18.80;13.27;;;;;;;7.82;100.00;93113.97;2085599;28;20172;-75
2023/04/30 03:17:39;;;;;;;20.88;14.40;;;;;;;7.87;100.00;93107.44;2073043;28;20041;-77
2023/04/30 03:19:03;;;;;;;20.35;14.93;;;;;;;7.87;100.00;93110.84;2113705;27;20040;-75
2023/04/30 03:20:25;;;;;;;24.20;15.65;;;;;;;8.00;100.00;93105.75;2114620;28;20584;-75
2023/04/30 03:21:33;;;;;;;21.17;13.93;;;;;;;7.96;100.00;93107.72;2115218;28;20036;-76
2023/04/30 03:22:52;;;;;;;19.20;13.90;;;;;;;7.85;100.00;93109.72;2098594;28;20043;-78
2023/04/30 03:25:35;;;;;;;21.15;14.07;;;;;;;7.75;100.00;93106.06;2102073;28;20442;-75
2023/04/30 03:27:02;;;;;;;19.75;14.13;;;;;;;7.75;100.00;93101.47;2101331;28;20036;-76
2023/04/30 03:28:04;;;;;;;19.02;13.77;;;;;;;7.66;100.00;93106.53;2105715;28;20039;-77
2023/04/30 03:29:05;;;;;;;20.15;14.45;;;;;;;7.64;100.00;93108.84;2100066;28;20557;-75
2023/04/30 03:30:10;;;;;;;20.92;14.40;;;;;;;7.68;100.00;93106.13;2090383;28;20037;-77
2023/04/30 03:31:11;;;;;;;18.75;14.95;;;;;;;7.63;100.00;93107.31;2092685;28;20128;-80
2023/04/30 03:32:12;;;;;;;21.30;15.45;;;;;;;7.64;100.00;93111.50;2086758;28;20040;-76
2023/04/30 03:33:13;;;;;;;21.65;15.02;;;;;;;7.58;100.00;93108.50;2096720;28;20099;-75
2023/04/30 03:34:14;;;;;;;18.95;14.48;;;;;;;7.56;100.00;93110.06;2093136;28;20024;-75
2023/04/30 03:35:18;;;;;;;21.60;14.85;;;;;;;7.74;100.00;93109.88;2102644;28;20042;-75
2023/04/30 03:36:30;;;;;;;21.45;15.25;;;;;;;7.73;100.00;93113.69;2100240;28;20028;-75
2023/04/30 03:37:45;;;;;;;22.02;14.73;;;;;;;7.78;100.00;93107.91;2098077;28;20157;-77
2023/04/30 03:38:49;;;;;;;19.38;13.90;;;;;;;7.62;100.00;93110.38;2111385;27;20142;-75
2023/04/30 03:39:50;;;;;;;19.95;14.43;;;;;;;7.65;100.00;93114.91;2100164;28;20077;-75
2023/04/30 03:40:51;;;;;;;19.70;14.50;;;;;;;7.70;100.00;93107.25;2096185;28;20208;-75
2023/04/30 03:41:52;;;;;;;18.88;14.25;;;;;;;7.67;100.00;93112.59;2092956;28;20029;-75
2023/04/30 03:42:59;;;;;;;17.48;14.60;;;;;;;7.57;100.00;93106.25;2098391;28;20048;-78
2023/04/30 03:44:14;;;;;;;18.25;13.57;;;;;;;7.58;100.00;93113.06;2089913;28;20028;-76
2023/04/30 03:45:19;;;;;;;17.40;13.20;;;;;;;7.54;100.00;93112.34;2094690;28;20033;-77
2023/04/30 03:46:23;;;;;;;18.52;13.18;;;;;;;7.50;100.00;93106.31;2104513;28;20137;-76
2023/04/30 03:47:25;;;;;;;20.08;14.82;;;;;;;7.48;100.00;93109.38;2094881;28;20032;-76
2023/04/30 03:48:38;;;;;;;16.70;13.30;;;;;;;7.54;100.00;93112.34;2094210;28;20261;-76
2023/04/30 03:50:03;;;;;;;18.45;13.75;;;;;;;7.58;100.00;93105.84;2106958;28;20039;-79
2023/04/30 03:51:38;;;;;;;16.27;13.13;;;;;;;7.73;100.00;93103.78;2096512;28;20032;-75
2023/04/30 03:52:58;;;;;;;17.50;12.70;;;;;;;7.66;100.00;93111.84;2106054;28;20164;-75
2023/04/30 03:54:18;;;;;;;15.65;12.13;;;;;;;7.74;100.00;93115.94;2095172;28;20036;-76
2023/04/30 03:55:20;;;;;;;14.63;12.15;;;;;;;7.79;100.00;93112.84;2099688;28;20043;-77
2023/04/30 03:57:16;;;;;;;14.85;12.07;;;;;;;7.79;100.00;93110.19;2104068;28;20040;-76
2023/04/30 03:58:38;;;;;;;17.50;12.07;;;;;;;7.73;100.00;93113.69;2102102;28;20047;-76
2023/04/30 04:00:09;;;;;;;16.88;12.02;;;;;;;7.74;100.00;93113.28;2103052;28;20394;-79
2023/04/30 04:01:10;;;;;;;16.83;12.27;;;;;;;7.75;100.00;93109.47;2096691;28;20736;-76
2023/04/30 04:02:11;;;;;;;14.48;12.27;;;;;;;7.78;100.00;93107.91;2083945;28;20026;-75
2023/04/30 04:03:16;;;;;;;14.88;11.57;;;;;;;7.73;100.00;93103.03;2087427;28;20068;-75
2023/04/30 04:04:21;;;;;;;14.90;12.07;;;;;;;7.82;100.00;93106.72;2088403;28;20494;-76
2023/04/30 04:06:57;;;;;;;15.15;11.27;;;;;;;7.80;100.00;93110.94;2104474;28;20043;-74
2023/04/30 04:07:58;;;;;;;14.20;12.02;;;;;;;7.81;100.00;93105.22;2103049;28;20027;-75
2023/04/30 04:08:59;;;;;;;14.45;11.23;;;;;;;7.77;100.00;93098.41;2102140;28;20036;-76
2023/04/30 04:10:00;;;;;;;14.50;11.73;;;;;;;7.74;100.00;93104.53;2105124;28;20617;-77
2023/04/30 04:11:01;;;;;;;13.65;11.32;;;;;;;7.75;100.00;93109.47;2109255;28;20511;-75
2023/04/30 04:12:05;;;;;;;13.30;11.50;;;;;;;7.77;100.00;93103.72;2109883;28;20046;-75
2023/04/30 04:15:07;;;;;;;13.55;11.25;;;;;;;7.82;100.00;93104.06;2100965;28;20108;-75
2023/04/30 04:16:52;;;;;;;14.85;11.35;;;;;;;7.74;100.00;93109.88;2108170;28;20142;-75
2023/04/30 04:18:03;;;;;;;14.27;10.93;;;;;;;7.79;100.00;93106.75;2101948;28;20050;-76
2023/04/30 04:19:05;;;;;;;14.10;10.63;;;;;;;7.70;100.00;93107.25;2094539;28;20041;-75
2023/04/30 04:20:07;;;;;;;17.05;11.80;;;;;;;7.71;100.00;93108.75;2083888;28;20514;-75
2023/04/30 04:21:34;;;;;;;12.47;10.97;;;;;;;7.71;100.00;93105.34;2086920;28;20071;-75
2023/04/30 04:23:06;;;;;;;15.77;11.40;;;;;;;7.73;100.00;93108.38;2102244;28;20510;-76
2023/04/30 04:24:24;;;;;;;12.38;10.35;;;;;;;7.73;100.00;93113.69;2093095;28;20066;-75
2023/04/30 04:25:26;;;;;;;14.60;10.85;;;;;;;7.85;100.00;93107.06;2087973;28;20129;-79
2023/04/30 04:26:35;;;;;;;13.18;10.73;;;;;;;7.74;100.00;93104.53;2084589;28;20631;-75
2023/04/30 04:32:31;;;;;;;14.48;9.95;;;;;;;7.76;100.00;93104.88;2063124;28;20038;-76
2023/04/30 04:33:48;;;;;;;11.60;9.85;;;;;;;7.74;100.00;93109.88;2069772;28;20495;-77
2023/04/30 04:35:02;;;;;;;13.02;10.27;;;;;;;7.65;100.00;93109.59;2104132;28;20389;-75
2023/04/30 04:36:05;;;;;;;12.18;10.10;;;;;;;7.69;100.00;93110.31;2104024;28;20036;-75
2023/04/30 04:37:18;;;;;;;14.88;11.30;;;;;;;7.73;100.00;93108.38;2104226;28;20032;-75
2023/04/30 04:38:53;;;;;;;12.07;9.65;;;;;;;7.64;100.00;93108.84;2101115;28;20023;-75
2023/04/30 04:40:03;;;;;;;11.65;9.50;;;;;;;7.84;100.00;93106.31;2106903;28;20036;-76
2023/04/30 04:41:19;;;;;;;11.68;9.77;;;;;;;7.76;100.00;93118.94;2096439;28;20093;-75
2023/04/30 04:42:27;;;;;;;11.98;9.60;;;;;;;7.82;100.00;93116.63;2088216;28;20036;-75
2023/04/30 04:43:31;;;;;;;11.65;9.80;;;;;;;7.74;100.00;93113.28;2084673;28;20041;-75
2023/04/30 04:44:35;;;;;;;12.50;10.25;;;;;;;7.66;100.00;93111.84;2087906;28;20072;-78
2023/04/30 04:45:46;;;;;;;11.65;10.18;;;;;;;7.86;100.00;93120.00;2092764;28;20501;-76
2023/04/30 04:46:59;;;;;;;12.15;10.32;;;;;;;7.72;100.00;93107.59;2095438;28;20490;-76
2023/04/30 04:48:20;;;;;;;12.10;9.55;;;;;;;7.70;100.00;93114.47;2097930;28;20066;-76
2023/04/30 04:49:26;;;;;;;12.90;9.57;;;;;;;7.56;100.00;93108.16;2088895;28;20040;-79
2023/04/30 04:50:32;;;;;;;12.70;10.43;;;;;;;7.72;100.00;93109.50;2092409;28;20047;-76
2023/04/30 04:51:43;;;;;;;12.98;10.55;;;;;;;7.63;100.00;93109.22;2093000;28;20115;-76
2023/04/30 04:53:56;;;;;;;12.02;9.85;;;;;;;7.65;100.00;93112.25;2085841;28;20100;-78
2023/04/30 04:54:48;;;;;;;12.75;9.43;;;;;;;7.54;100.00;93112.34;2093742;28;20846;-76
2023/04/30 04:55:56;;;;;;;12.07;9.85;;;;;;;7.52;100.00;93115.41;2103318;28;20032;-75
2023/04/30 04:57:07;;;;;;;11.65;9.25;;;;;;;7.59;100.00;93111.91;2092021;28;20040;-75
2023/04/30 04:58:19;;;;;;;12.93;10.43;;;;;;;7.59;100.00;93114.56;2096696;28;20498;-75
2023/04/30 04:59:28;;;;;;;14.15;10.82;;;;;;;7.77;100.00;93117.03;2087943;28;20037;-75
2023/04/30 05:00:30;;;;;;;14.85;11.13;;;;;;;7.77;100.00;93111.72;2097963;28;20131;-76
2023/04/30 05:01:31;;;;;;;17.10;11.52;;;;;;;7.79;100.00;93117.41;2103942;28;20067;-75
2023/04/30 05:02:33;;;;;;;15.38;11.93;;;;;;;7.87;100.00;93118.09;2099607;28;20059;-75
2023/04/30 05:03:39;;;;;;;14.60;10.52;;;;;;;7.81;100.00;93118.53;2096073;28;20028;-75
2023/04/30 05:04:49;;;;;;;12.57;10.82;;;;;;;7.82;100.00;93124.59;2101795;28;20047;-76
2023/04/30 05:05:59;;;;;;;13.77;10.13;;;;;;;7.82;100.00;93128.03;2101253;28;20093;-75
2023/04/30 05:07:00;;;;;;;13.88;10.50;;;;;;;7.79;100.00;93120.06;2101966;28;20024;-75
2023/04/30 05:08:09;;;;;;;13.05;9.93;;;;;;;7.87;100.00;93123.41;2111922;28;20024;-77
2023/04/30 05:09:11;;;;;;;11.85;9.88;;;;;;;7.85;100.00;93123.03;2098997;28;20078;-75
2023/04/30 05:10:15;;;;;;;12.10;9.73;;;;;;;7.81;100.00;93128.41;2099746;28;20103;-77
2023/04/30 05:11:21;;;;;;;11.13;9.55;;;;;;;7.83;100.00;93126.84;2110429;28;20054;-75
2023/04/30 05:12:26;;;;;;;13.52;10.10;;;;;;;7.98;100.00;93134.69;2101171;28;20173;-76
2023/04/30 05:13:32;;;;;;;11.68;9.70;;;;;;;7.89;100.00;93129.81;2096969;28;20036;-75
2023/04/30 05:14:37;;;;;;;11.45;8.95;;;;;;;7.91;100.00;93130.19;2093243;28;20051;-76
2023/04/30 05:15:38;;;;;;;12.05;10.00;;;;;;;7.91;100.00;93132.88;2107556;28;20027;-76
2023/04/30 05:16:39;;;;;;;11.05;9.82;;;;;;;7.82;100.00;93125.34;2112700;28;20047;-78
2023/04/30 05:17:40;;;;;;;12.63;10.02;;;;;;;7.73;100.00;93134.97;2109285;28;20047;-77
2023/04/30 05:18:41;;;;;;;13.77;9.85;;;;;;;7.76;100.00;93126.94;2108418;28;20519;-75
2023/04/30 05:19:46;;;;;;;12.90;9.63;;;;;;;7.82;100.00;93127.25;2103237;28;20036;-76
2023/04/30 05:21:14;;;;;;;11.40;9.25;;;;;;;7.95;100.00;93138.16;2090150;28;20040;-77
2023/04/30 05:25:25;;;;;;;;;;;;;;;;;;;;;
2023/04/30 05:31:20;;;;;;;14.02;8.60;;;;;;;8.02;100.00;93133.47;2046312;28;20039;-79
2023/04/30 05:32:58;;;;;;;9.85;8.23;;;;;;;7.99;100.00;93134.28;2053377;28;20042;-76
2023/04/30 05:37:16;;;;;;;15.23;8.50;;;;;;;8.14;100.00;93132.22;2059334;28;20038;-78
2023/04/30 05:39:08;;;;;;;;;;;;;;;;;;;;;
2023/04/30 05:43:54;;;;;;;9.68;7.30;;;;;;;8.17;100.00;93138.66;2056001;28;20074;-78
2023/04/30 05:47:51;;;;;;;12.55;8.23;;;;;;;8.12;100.00;93131.88;2018451;29;20131;-76
2023/04/30 05:48:48;;;;;;;10.95;8.25;;;;;;;8.28;100.00;93131.28;2029095;29;20044;-75
2023/04/30 05:50:00;;;;;;;11.77;8.43;;;;;;;8.17;100.00;93122.69;2061093;28;20042;-75
2023/04/30 05:51:10;;;;;;;9.73;7.93;;;;;;;8.24;100.00;93127.91;2065519;28;20048;-75
2023/04/30 05:52:19;;;;;;;9.88;8.10;;;;;;;8.24;100.00;93125.97;2056740;28;20088;-76
2023/04/30 05:53:20;;;;;;;11.02;9.02;;;;;;;8.28;100.00;93133.94;2057952;28;20097;-74
2023/04/30 05:54:22;;;;;;;13.00;8.60;;;;;;;8.38;100.00;93127.72;2065757;28;20041;-77
2023/04/30 05:55:49;;;;;;;10.98;8.10;;;;;;;8.40;100.00;93125.44;2075778;28;20634;-75